RYR349 LEPA-EDDK
Flight info
| Callsign | RYR349 |
|---|---|
| Flight time | 1h 55m |
| Altitude | 36000 |
| Route | MEROS N853 LUMAS DCT MAXIR DCT LUSOL DCT BODRU DCT OKTET DCT IRMAR DCT KINES DCT VANAS DCT MOBLO DCT UBIMA DCT GILIR DCT PENDU DCT IXILU DCT EPL DCT JARNY DCT ROUSY M624 DIK N853 ARCKY T853 IBESA T860 ERUKI ERUKI1B |
| Aircraft | A320/M-SDE3FGHIRWY/LB1 |
Departure
| Time | 2026-04-25 10:54 |
|---|---|
| Airport | Palma de Mallorca Airport (LEPA) |
Arrival
| Time | 2026-04-25 12:50 |
|---|---|
| Airport | Cologne Bonn Airport (EDDK) |
| Time | Latitude | Longitude | Altitude | Speed | Heading |
|---|---|---|---|---|---|
| 2026-04-25 10:45 | 39.54757 | 2.73641 | 30 ft | 0 kts | 58° |
| 2026-04-25 10:46 | 39.54749 | 2.73624 | 30 ft | 4 kts | 62° |
| 2026-04-25 10:46 | 39.54739 | 2.73592 | 30 ft | 4 kts | 78° |
| 2026-04-25 10:46 | 39.54739 | 2.73561 | 30 ft | 4 kts | 124° |
| 2026-04-25 10:46 | 39.54744 | 2.73552 | 30 ft | 0 kts | 148° |
| 2026-04-25 10:49 | 39.54741 | 2.73554 | 30 ft | 2 kts | 148° |
| 2026-04-25 10:49 | 39.54674 | 2.73607 | 30 ft | 15 kts | 147° |
| 2026-04-25 10:50 | 39.54584 | 2.73649 | 30 ft | 11 kts | 148° |
| 2026-04-25 10:50 | 39.54528 | 2.73693 | 30 ft | 8 kts | 148° |
| 2026-04-25 10:50 | 39.54496 | 2.73718 | 30 ft | 0 kts | 149° |
| 2026-04-25 10:53 | 39.54489 | 2.73724 | 30 ft | 6 kts | 148° |
| 2026-04-25 10:53 | 39.54455 | 2.73752 | 30 ft | 5 kts | 148° |
| 2026-04-25 10:53 | 39.54431 | 2.73777 | 30 ft | 4 kts | 128° |
| 2026-04-25 10:53 | 39.54445 | 2.73838 | 30 ft | 15 kts | 57° |
| 2026-04-25 10:54 | 39.54586 | 2.74132 | 30 ft | 74 kts | 60° |
| 2026-04-25 10:54 | 39.54815 | 2.74625 | 30 ft | 117 kts | 58° |
| 2026-04-25 10:54 | 39.55548 | 2.76175 | 89 ft | 177 kts | 59° |
| 2026-04-25 10:54 | 39.56158 | 2.77490 | 797 ft | 169 kts | 60° |
| 2026-04-25 10:55 | 39.56754 | 2.78789 | 1537 ft | 166 kts | 60° |
| 2026-04-25 10:55 | 39.57347 | 2.80106 | 2140 ft | 174 kts | 62° |
| 2026-04-25 10:55 | 39.57988 | 2.81525 | 2472 ft | 197 kts | 60° |
| 2026-04-25 10:55 | 39.58708 | 2.83114 | 2926 ft | 209 kts | 61° |
| 2026-04-25 10:56 | 39.59457 | 2.84763 | 3679 ft | 213 kts | 60° |
| 2026-04-25 10:56 | 39.60213 | 2.86427 | 4375 ft | 216 kts | 59° |
| 2026-04-25 10:56 | 39.60982 | 2.88114 | 5085 ft | 218 kts | 59° |
| 2026-04-25 10:56 | 39.61760 | 2.89818 | 5779 ft | 221 kts | 59° |
| 2026-04-25 10:57 | 39.62550 | 2.91563 | 6382 ft | 231 kts | 60° |
| 2026-04-25 10:57 | 39.63387 | 2.93470 | 6693 ft | 255 kts | 60° |
| 2026-04-25 10:57 | 39.64283 | 2.95543 | 7188 ft | 269 kts | 60° |
| 2026-04-25 10:57 | 39.65206 | 2.97683 | 7916 ft | 274 kts | 60° |
| 2026-04-25 10:58 | 39.66145 | 2.99857 | 8678 ft | 278 kts | 60° |
| 2026-04-25 10:58 | 39.67092 | 3.02050 | 9495 ft | 280 kts | 60° |
| 2026-04-25 10:58 | 39.68050 | 3.04270 | 10250 ft | 284 kts | 60° |
| 2026-04-25 10:58 | 39.69046 | 3.06576 | 10584 ft | 304 kts | 60° |
| 2026-04-25 10:59 | 39.70121 | 3.09063 | 10765 ft | 327 kts | 60° |
| 2026-04-25 10:59 | 39.71265 | 3.11693 | 11177 ft | 340 kts | 58° |
| 2026-04-25 10:59 | 39.72706 | 3.14144 | 11825 ft | 343 kts | 50° |
| 2026-04-25 10:59 | 39.74243 | 3.16536 | 12524 ft | 346 kts | 50° |
| 2026-04-25 11:00 | 39.75793 | 3.18955 | 13203 ft | 350 kts | 49° |
| 2026-04-25 11:00 | 39.77362 | 3.21401 | 13878 ft | 354 kts | 49° |
| 2026-04-25 11:00 | 39.78945 | 3.23868 | 14460 ft | 357 kts | 49° |
| 2026-04-25 11:00 | 39.80544 | 3.26363 | 15053 ft | 360 kts | 49° |
| 2026-04-25 11:01 | 39.82137 | 3.28842 | 15629 ft | 364 kts | 49° |
| 2026-04-25 11:01 | 39.83764 | 3.31377 | 16209 ft | 367 kts | 50° |
| 2026-04-25 11:01 | 39.85401 | 3.33938 | 16789 ft | 369 kts | 50° |
| 2026-04-25 11:01 | 39.87049 | 3.36523 | 17372 ft | 373 kts | 50° |
| 2026-04-25 11:02 | 39.88711 | 3.39131 | 17938 ft | 376 kts | 50° |
| 2026-04-25 11:02 | 39.90386 | 3.41759 | 18500 ft | 379 kts | 50° |
| 2026-04-25 11:02 | 39.92075 | 3.44412 | 18986 ft | 382 kts | 50° |
| 2026-04-25 11:02 | 39.93779 | 3.47086 | 19482 ft | 385 kts | 50° |
| 2026-04-25 11:03 | 39.94913 | 3.48867 | 19814 ft | 387 kts | 50° |
| 2026-04-25 11:03 | 39.96635 | 3.51575 | 20309 ft | 390 kts | 50° |
| 2026-04-25 11:03 | 39.98372 | 3.54308 | 20817 ft | 393 kts | 50° |
| 2026-04-25 11:03 | 40.00120 | 3.57057 | 21327 ft | 395 kts | 50° |
| 2026-04-25 11:04 | 40.01879 | 3.59825 | 21808 ft | 398 kts | 49° |
| 2026-04-25 11:04 | 40.03652 | 3.62617 | 22278 ft | 401 kts | 49° |
| 2026-04-25 11:04 | 40.05435 | 3.65429 | 22726 ft | 404 kts | 49° |
| 2026-04-25 11:04 | 40.07231 | 3.68268 | 23163 ft | 407 kts | 49° |
| 2026-04-25 11:05 | 40.09039 | 3.71130 | 23605 ft | 410 kts | 49° |
| 2026-04-25 11:05 | 40.10857 | 3.74012 | 23980 ft | 413 kts | 49° |
| 2026-04-25 11:05 | 40.12804 | 3.76769 | 24332 ft | 414 kts | 39° |
| 2026-04-25 11:05 | 40.15229 | 3.78773 | 24682 ft | 414 kts | 23° |
| 2026-04-25 11:06 | 40.17897 | 3.80219 | 25024 ft | 416 kts | 21° |
| 2026-04-25 11:06 | 40.20590 | 3.81642 | 25362 ft | 418 kts | 21° |
| 2026-04-25 11:06 | 40.23295 | 3.83062 | 25722 ft | 419 kts | 21° |
| 2026-04-25 11:06 | 40.26008 | 3.84486 | 26057 ft | 421 kts | 21° |
| 2026-04-25 11:07 | 40.28735 | 3.85920 | 26387 ft | 423 kts | 21° |
| 2026-04-25 11:07 | 40.31476 | 3.87365 | 26707 ft | 426 kts | 21° |
| 2026-04-25 11:07 | 40.34228 | 3.88822 | 27017 ft | 428 kts | 21° |
| 2026-04-25 11:07 | 40.36992 | 3.90294 | 27320 ft | 430 kts | 21° |
| 2026-04-25 11:08 | 40.39769 | 3.91779 | 27626 ft | 432 kts | 21° |
| 2026-04-25 11:08 | 40.42560 | 3.93271 | 27921 ft | 434 kts | 21° |
| 2026-04-25 11:08 | 40.45324 | 3.94745 | 28209 ft | 436 kts | 21° |
| 2026-04-25 11:08 | 40.48142 | 3.96244 | 28494 ft | 438 kts | 21° |
| 2026-04-25 11:09 | 40.50972 | 3.97750 | 28765 ft | 440 kts | 21° |
| 2026-04-25 11:09 | 40.53813 | 3.99261 | 29040 ft | 442 kts | 21° |
| 2026-04-25 11:09 | 40.56669 | 4.00787 | 29312 ft | 443 kts | 21° |
| 2026-04-25 11:09 | 40.59531 | 4.02320 | 29552 ft | 445 kts | 21° |
| 2026-04-25 11:10 | 40.62403 | 4.03867 | 29795 ft | 447 kts | 22° |
| 2026-04-25 11:10 | 40.64308 | 4.04906 | 29948 ft | 448 kts | 22° |
| 2026-04-25 11:10 | 40.68163 | 4.07040 | 30249 ft | 450 kts | 22° |
| 2026-04-25 11:10 | 40.71055 | 4.08657 | 30447 ft | 452 kts | 22° |
| 2026-04-25 11:11 | 40.73953 | 4.10283 | 30635 ft | 453 kts | 22° |
| 2026-04-25 11:11 | 40.76849 | 4.11907 | 30905 ft | 452 kts | 22° |
| 2026-04-25 11:11 | 40.79743 | 4.13523 | 31178 ft | 451 kts | 22° |
| 2026-04-25 11:11 | 40.82632 | 4.15128 | 31447 ft | 450 kts | 22° |
| 2026-04-25 11:12 | 40.85520 | 4.16730 | 31710 ft | 450 kts | 22° |
| 2026-04-25 11:12 | 40.88402 | 4.18327 | 31977 ft | 449 kts | 22° |
| 2026-04-25 11:12 | 40.91277 | 4.19921 | 32257 ft | 447 kts | 22° |
| 2026-04-25 11:12 | 40.94133 | 4.21514 | 32630 ft | 444 kts | 22° |
| 2026-04-25 11:13 | 40.96970 | 4.23099 | 32940 ft | 442 kts | 22° |
| 2026-04-25 11:13 | 40.99801 | 4.24681 | 33212 ft | 441 kts | 22° |
| 2026-04-25 11:13 | 41.02625 | 4.26259 | 33477 ft | 440 kts | 22° |
| 2026-04-25 11:13 | 41.05444 | 4.27839 | 33738 ft | 440 kts | 22° |
| 2026-04-25 11:14 | 41.08260 | 4.29422 | 33972 ft | 440 kts | 22° |
| 2026-04-25 11:14 | 41.11076 | 4.31006 | 34203 ft | 440 kts | 22° |
| 2026-04-25 11:14 | 41.13893 | 4.32590 | 34417 ft | 440 kts | 22° |
| 2026-04-25 11:14 | 41.16709 | 4.34178 | 34620 ft | 440 kts | 23° |
| 2026-04-25 11:15 | 41.19523 | 4.35771 | 34819 ft | 440 kts | 23° |
| 2026-04-25 11:15 | 41.22334 | 4.37367 | 35011 ft | 440 kts | 23° |
| 2026-04-25 11:15 | 41.25145 | 4.38970 | 35197 ft | 440 kts | 23° |
| 2026-04-25 11:15 | 41.27957 | 4.40578 | 35380 ft | 440 kts | 23° |
| 2026-04-25 11:16 | 41.33542 | 4.43778 | 35717 ft | 440 kts | 23° |
| 2026-04-25 11:16 | 41.36351 | 4.45392 | 35885 ft | 440 kts | 23° |
| 2026-04-25 11:16 | 41.39161 | 4.47007 | 36061 ft | 439 kts | 23° |
| 2026-04-25 11:17 | 41.44784 | 4.50227 | 36161 ft | 439 kts | 23° |
| 2026-04-25 11:17 | 41.50399 | 4.53441 | 36161 ft | 439 kts | 23° |
| 2026-04-25 11:18 | 41.56007 | 4.56664 | 36161 ft | 439 kts | 23° |
| 2026-04-25 11:18 | 41.61604 | 4.59890 | 36160 ft | 437 kts | 23° |
| 2026-04-25 11:19 | 41.67182 | 4.63115 | 36156 ft | 437 kts | 23° |
| 2026-04-25 11:19 | 41.72758 | 4.66355 | 36156 ft | 437 kts | 26° |
| 2026-04-25 11:20 | 41.78030 | 4.70415 | 36157 ft | 438 kts | 31° |
| 2026-04-25 11:20 | 41.83251 | 4.74618 | 36159 ft | 438 kts | 31° |
| 2026-04-25 11:21 | 41.88475 | 4.78824 | 36161 ft | 438 kts | 31° |
| 2026-04-25 11:21 | 41.93701 | 4.83040 | 36163 ft | 439 kts | 30° |
| 2026-04-25 11:22 | 41.98049 | 4.86550 | 36161 ft | 439 kts | 31° |
| 2026-04-25 11:22 | 42.04133 | 4.91463 | 36159 ft | 439 kts | 31° |
| 2026-04-25 11:23 | 42.09365 | 4.95714 | 36161 ft | 439 kts | 30° |
| 2026-04-25 11:23 | 42.14600 | 4.99972 | 36158 ft | 440 kts | 30° |
| 2026-04-25 11:24 | 42.19840 | 5.04232 | 36159 ft | 440 kts | 31° |
| 2026-04-25 11:24 | 42.25081 | 5.08510 | 36161 ft | 440 kts | 31° |
| 2026-04-25 11:25 | 42.30320 | 5.12798 | 36162 ft | 441 kts | 31° |
| 2026-04-25 11:25 | 42.35569 | 5.17086 | 36157 ft | 441 kts | 30° |
| 2026-04-25 11:26 | 42.40819 | 5.21394 | 36157 ft | 441 kts | 31° |
| 2026-04-25 11:26 | 42.46032 | 5.25689 | 36155 ft | 442 kts | 31° |
| 2026-04-25 11:27 | 42.51282 | 5.30018 | 36154 ft | 442 kts | 31° |
| 2026-04-25 11:27 | 42.55692 | 5.33654 | 36156 ft | 443 kts | 31° |
| 2026-04-25 11:28 | 42.61816 | 5.38714 | 36146 ft | 444 kts | 31° |
| 2026-04-25 11:28 | 42.67086 | 5.43089 | 36146 ft | 444 kts | 31° |
| 2026-04-25 11:29 | 42.72362 | 5.47467 | 36151 ft | 444 kts | 31° |
| 2026-04-25 11:29 | 42.77638 | 5.51857 | 36148 ft | 445 kts | 31° |
| 2026-04-25 11:30 | 42.82914 | 5.56259 | 36150 ft | 445 kts | 31° |
| 2026-04-25 11:30 | 42.88188 | 5.60661 | 36158 ft | 445 kts | 31° |
| 2026-04-25 11:31 | 42.93462 | 5.65082 | 36145 ft | 445 kts | 31° |
| 2026-04-25 11:31 | 42.98746 | 5.69516 | 36139 ft | 446 kts | 31° |
| 2026-04-25 11:32 | 43.04036 | 5.73957 | 36135 ft | 447 kts | 31° |
| 2026-04-25 11:32 | 43.09300 | 5.78390 | 36120 ft | 447 kts | 31° |
| 2026-04-25 11:33 | 43.14638 | 5.82894 | 36117 ft | 448 kts | 31° |
| 2026-04-25 11:33 | 43.19905 | 5.87352 | 36115 ft | 448 kts | 31° |
| 2026-04-25 11:34 | 43.25210 | 5.91850 | 36121 ft | 448 kts | 31° |
| 2026-04-25 11:34 | 43.30514 | 5.96357 | 36107 ft | 449 kts | 31° |
| 2026-04-25 11:35 | 43.35824 | 6.00870 | 36093 ft | 449 kts | 29° |
| 2026-04-25 11:35 | 43.41589 | 6.03979 | 36087 ft | 445 kts | 10° |
| 2026-04-25 11:36 | 43.47728 | 6.04878 | 36091 ft | 444 kts | 1° |
| 2026-04-25 11:36 | 43.53892 | 6.05490 | 36074 ft | 444 kts | 2° |
| 2026-04-25 11:37 | 43.60065 | 6.06109 | 36078 ft | 445 kts | 2° |
| 2026-04-25 11:37 | 43.66242 | 6.06738 | 36079 ft | 445 kts | 3° |
| 2026-04-25 11:38 | 43.72418 | 6.07362 | 36080 ft | 445 kts | 3° |
| 2026-04-25 11:38 | 43.78459 | 6.08949 | 36076 ft | 448 kts | 18° |
| 2026-04-25 11:39 | 43.84116 | 6.12587 | 36076 ft | 449 kts | 25° |
| 2026-04-25 11:39 | 43.89729 | 6.16412 | 36076 ft | 450 kts | 25° |
| 2026-04-25 11:40 | 43.95340 | 6.20244 | 36077 ft | 450 kts | 25° |
| 2026-04-25 11:40 | 44.00955 | 6.24082 | 36080 ft | 450 kts | 25° |
| 2026-04-25 11:41 | 44.06572 | 6.27925 | 36079 ft | 450 kts | 25° |
| 2026-04-25 11:41 | 44.12189 | 6.31780 | 36075 ft | 450 kts | 25° |
| 2026-04-25 11:42 | 44.17804 | 6.35659 | 36072 ft | 451 kts | 25° |
| 2026-04-25 11:42 | 44.23421 | 6.39545 | 36073 ft | 451 kts | 25° |
| 2026-04-25 11:43 | 44.29045 | 6.43433 | 36080 ft | 451 kts | 25° |
| 2026-04-25 11:43 | 44.34672 | 6.47323 | 36079 ft | 451 kts | 24° |
| 2026-04-25 11:44 | 44.40296 | 6.51223 | 36082 ft | 451 kts | 25° |
| 2026-04-25 11:44 | 44.45921 | 6.55140 | 36081 ft | 451 kts | 24° |
| 2026-04-25 11:45 | 44.51544 | 6.59052 | 36080 ft | 452 kts | 24° |
| 2026-04-25 11:45 | 44.57170 | 6.62982 | 36078 ft | 452 kts | 25° |
| 2026-04-25 11:46 | 44.62790 | 6.66935 | 36079 ft | 452 kts | 25° |
| 2026-04-25 11:46 | 44.68413 | 6.70885 | 36080 ft | 452 kts | 25° |
| 2026-04-25 11:47 | 44.74034 | 6.74840 | 36076 ft | 452 kts | 25° |
| 2026-04-25 11:47 | 44.79852 | 6.78032 | 36091 ft | 447 kts | 10° |
| 2026-04-25 11:48 | 44.85993 | 6.78666 | 36081 ft | 442 kts | 354° |
| 2026-04-25 11:48 | 44.92134 | 6.78232 | 36079 ft | 442 kts | 355° |
| 2026-04-25 11:49 | 44.98278 | 6.77829 | 36087 ft | 442 kts | 355° |
| 2026-04-25 11:49 | 45.04386 | 6.77433 | 36104 ft | 442 kts | 355° |
| 2026-04-25 11:50 | 45.10579 | 6.77023 | 36110 ft | 442 kts | 355° |
| 2026-04-25 11:50 | 45.16688 | 6.76622 | 36123 ft | 442 kts | 355° |
| 2026-04-25 11:51 | 45.22835 | 6.76214 | 36141 ft | 442 kts | 354° |
| 2026-04-25 11:51 | 45.28973 | 6.75800 | 36146 ft | 441 kts | 354° |
| 2026-04-25 11:52 | 45.35107 | 6.75394 | 36148 ft | 441 kts | 354° |
| 2026-04-25 11:52 | 45.41243 | 6.74987 | 36155 ft | 441 kts | 354° |
| 2026-04-25 11:53 | 45.47374 | 6.74571 | 36154 ft | 441 kts | 354° |
| 2026-04-25 11:53 | 45.53497 | 6.74154 | 36157 ft | 441 kts | 354° |
| 2026-04-25 11:54 | 45.58586 | 6.73807 | 36172 ft | 440 kts | 354° |
| 2026-04-25 11:55 | 45.67751 | 6.73174 | 36162 ft | 439 kts | 354° |
| 2026-04-25 11:55 | 45.73851 | 6.72753 | 36159 ft | 438 kts | 354° |
| 2026-04-25 11:56 | 45.79943 | 6.72328 | 36171 ft | 438 kts | 354° |
| 2026-04-25 11:56 | 45.86014 | 6.71921 | 36167 ft | 436 kts | 354° |
| 2026-04-25 11:57 | 45.92079 | 6.71514 | 36157 ft | 436 kts | 354° |
| 2026-04-25 11:57 | 45.98138 | 6.71101 | 36157 ft | 435 kts | 354° |
| 2026-04-25 11:58 | 46.04186 | 6.70689 | 36158 ft | 435 kts | 354° |
| 2026-04-25 11:58 | 46.10227 | 6.70266 | 36312 ft | 434 kts | 352° |
| 2026-04-25 11:58 | 46.13202 | 6.69661 | 36515 ft | 429 kts | 344° |
| 2026-04-25 11:59 | 46.16048 | 6.68455 | 36770 ft | 425 kts | 339° |
| 2026-04-25 11:59 | 46.18841 | 6.67087 | 37044 ft | 423 kts | 339° |
| 2026-04-25 11:59 | 46.21622 | 6.65738 | 37306 ft | 420 kts | 339° |
| 2026-04-25 12:00 | 46.27136 | 6.63076 | 37847 ft | 415 kts | 339° |
| 2026-04-25 12:00 | 46.29872 | 6.61748 | 38072 ft | 414 kts | 339° |
| 2026-04-25 12:01 | 46.38144 | 6.57712 | 38142 ft | 422 kts | 339° |
| 2026-04-25 12:01 | 46.43713 | 6.54983 | 38121 ft | 423 kts | 339° |
| 2026-04-25 12:02 | 46.52065 | 6.50891 | 38129 ft | 422 kts | 339° |
| 2026-04-25 12:02 | 46.57635 | 6.48157 | 38124 ft | 423 kts | 339° |
| 2026-04-25 12:03 | 46.63203 | 6.45399 | 38123 ft | 423 kts | 339° |
| 2026-04-25 12:03 | 46.68777 | 6.42642 | 38123 ft | 423 kts | 339° |
| 2026-04-25 12:04 | 46.74354 | 6.39888 | 38127 ft | 423 kts | 339° |
| 2026-04-25 12:04 | 46.79935 | 6.37120 | 38143 ft | 424 kts | 339° |
| 2026-04-25 12:05 | 46.85513 | 6.34330 | 38150 ft | 423 kts | 339° |
| 2026-04-25 12:05 | 46.91083 | 6.31545 | 38142 ft | 423 kts | 339° |
| 2026-04-25 12:06 | 46.96657 | 6.28765 | 38146 ft | 423 kts | 339° |
| 2026-04-25 12:06 | 47.02230 | 6.25979 | 38147 ft | 423 kts | 339° |
| 2026-04-25 12:07 | 47.07684 | 6.22948 | 38148 ft | 421 kts | 332° |
| 2026-04-25 12:07 | 47.12933 | 6.19149 | 38137 ft | 421 kts | 332° |
| 2026-04-25 12:08 | 47.18197 | 6.15361 | 38130 ft | 422 kts | 332° |
| 2026-04-25 12:08 | 47.23465 | 6.11545 | 38147 ft | 422 kts | 332° |
| 2026-04-25 12:09 | 47.28742 | 6.07723 | 38139 ft | 423 kts | 332° |
| 2026-04-25 12:09 | 47.34145 | 6.04314 | 38132 ft | 425 kts | 343° |
| 2026-04-25 12:10 | 47.40035 | 6.03356 | 38129 ft | 430 kts | 358° |
| 2026-04-25 12:10 | 47.46021 | 6.03506 | 38136 ft | 430 kts | 358° |
| 2026-04-25 12:11 | 47.52010 | 6.03644 | 38132 ft | 431 kts | 358° |
| 2026-04-25 12:11 | 47.58003 | 6.03778 | 38133 ft | 431 kts | 358° |
| 2026-04-25 12:12 | 47.62983 | 6.03893 | 38131 ft | 430 kts | 358° |
| 2026-04-25 12:12 | 47.69984 | 6.04056 | 38144 ft | 430 kts | 358° |
| 2026-04-25 12:13 | 47.75976 | 6.04197 | 38140 ft | 431 kts | 358° |
| 2026-04-25 12:13 | 47.81969 | 6.04364 | 38133 ft | 431 kts | 358° |
| 2026-04-25 12:14 | 47.87965 | 6.04562 | 38141 ft | 431 kts | 358° |
| 2026-04-25 12:14 | 47.93965 | 6.04758 | 38144 ft | 432 kts | 358° |
| 2026-04-25 12:15 | 47.99969 | 6.04950 | 38144 ft | 432 kts | 358° |
| 2026-04-25 12:15 | 48.05974 | 6.05139 | 38145 ft | 431 kts | 358° |
| 2026-04-25 12:16 | 48.11975 | 6.05319 | 38152 ft | 431 kts | 358° |
| 2026-04-25 12:16 | 48.17973 | 6.05507 | 38152 ft | 431 kts | 358° |
| 2026-04-25 12:17 | 48.23969 | 6.05698 | 38151 ft | 431 kts | 358° |
| 2026-04-25 12:17 | 48.29928 | 6.05880 | 38160 ft | 431 kts | 358° |
| 2026-04-25 12:18 | 48.35923 | 6.06097 | 38157 ft | 431 kts | 359° |
| 2026-04-25 12:18 | 48.41919 | 6.06380 | 38152 ft | 431 kts | 359° |
| 2026-04-25 12:19 | 48.50906 | 6.06819 | 38156 ft | 431 kts | 359° |
| 2026-04-25 12:20 | 48.56897 | 6.07100 | 38173 ft | 431 kts | 359° |
| 2026-04-25 12:20 | 48.62890 | 6.07372 | 38159 ft | 431 kts | 359° |
| 2026-04-25 12:21 | 48.68888 | 6.07639 | 38131 ft | 431 kts | 359° |
| 2026-04-25 12:21 | 48.74895 | 6.07919 | 38134 ft | 432 kts | 359° |
| 2026-04-25 12:22 | 48.80899 | 6.08203 | 38142 ft | 432 kts | 359° |
| 2026-04-25 12:22 | 48.86908 | 6.08476 | 38164 ft | 432 kts | 359° |
| 2026-04-25 12:23 | 48.92919 | 6.08755 | 38181 ft | 432 kts | 359° |
| 2026-04-25 12:23 | 48.98933 | 6.09025 | 38178 ft | 432 kts | 359° |
| 2026-04-25 12:24 | 49.04951 | 6.09305 | 38173 ft | 433 kts | 359° |
| 2026-04-25 12:24 | 49.10974 | 6.09606 | 38171 ft | 433 kts | 359° |
| 2026-04-25 12:25 | 49.15975 | 6.09838 | 38176 ft | 433 kts | 359° |
| 2026-04-25 12:25 | 49.23016 | 6.10184 | 38162 ft | 433 kts | 359° |
| 2026-04-25 12:25 | 49.26035 | 6.10346 | 37987 ft | 434 kts | 359° |
| 2026-04-25 12:26 | 49.29045 | 6.10508 | 37712 ft | 433 kts | 359° |
| 2026-04-25 12:26 | 49.32051 | 6.10667 | 37441 ft | 432 kts | 359° |
| 2026-04-25 12:26 | 49.35057 | 6.10825 | 37173 ft | 432 kts | 359° |
| 2026-04-25 12:26 | 49.38063 | 6.10980 | 36927 ft | 432 kts | 359° |
| 2026-04-25 12:27 | 49.41067 | 6.11138 | 36660 ft | 432 kts | 359° |
| 2026-04-25 12:27 | 49.44074 | 6.11299 | 36093 ft | 433 kts | 359° |
| 2026-04-25 12:27 | 49.47089 | 6.11460 | 35427 ft | 433 kts | 359° |
| 2026-04-25 12:27 | 49.50091 | 6.11613 | 35207 ft | 432 kts | 359° |
| 2026-04-25 12:28 | 49.53093 | 6.11742 | 35146 ft | 432 kts | 359° |
| 2026-04-25 12:28 | 49.59110 | 6.11966 | 35178 ft | 433 kts | 359° |
| 2026-04-25 12:28 | 49.62117 | 6.12070 | 34950 ft | 431 kts | 358° |
| 2026-04-25 12:29 | 49.65121 | 6.12171 | 34236 ft | 432 kts | 359° |
| 2026-04-25 12:29 | 49.68124 | 6.12274 | 33630 ft | 432 kts | 358° |
| 2026-04-25 12:29 | 49.71130 | 6.12380 | 33091 ft | 432 kts | 359° |
| 2026-04-25 12:29 | 49.74122 | 6.12496 | 32560 ft | 428 kts | 359° |
| 2026-04-25 12:30 | 49.77081 | 6.12614 | 32041 ft | 423 kts | 358° |
| 2026-04-25 12:30 | 49.80008 | 6.12732 | 31531 ft | 419 kts | 358° |
| 2026-04-25 12:30 | 49.82866 | 6.12848 | 31045 ft | 414 kts | 358° |
| 2026-04-25 12:30 | 49.85726 | 6.12962 | 30554 ft | 409 kts | 358° |
| 2026-04-25 12:31 | 49.88554 | 6.13051 | 30050 ft | 404 kts | 357° |
| 2026-04-25 12:31 | 49.91349 | 6.13087 | 29468 ft | 400 kts | 357° |
| 2026-04-25 12:31 | 49.94118 | 6.13088 | 28916 ft | 396 kts | 356° |
| 2026-04-25 12:31 | 49.96856 | 6.13079 | 28374 ft | 392 kts | 356° |
| 2026-04-25 12:32 | 49.99571 | 6.13074 | 27846 ft | 389 kts | 356° |
| 2026-04-25 12:32 | 50.02263 | 6.13075 | 27323 ft | 385 kts | 357° |
| 2026-04-25 12:32 | 50.04933 | 6.13080 | 26821 ft | 383 kts | 357° |
| 2026-04-25 12:32 | 50.07594 | 6.13091 | 26318 ft | 381 kts | 357° |
| 2026-04-25 12:33 | 50.10239 | 6.13108 | 25826 ft | 379 kts | 357° |
| 2026-04-25 12:33 | 50.12872 | 6.13128 | 25337 ft | 377 kts | 357° |
| 2026-04-25 12:33 | 50.15489 | 6.13149 | 24858 ft | 375 kts | 358° |
| 2026-04-25 12:33 | 50.18088 | 6.13167 | 24384 ft | 372 kts | 357° |
| 2026-04-25 12:34 | 50.20674 | 6.13179 | 23925 ft | 370 kts | 357° |
| 2026-04-25 12:34 | 50.23242 | 6.13301 | 23406 ft | 370 kts | 5° |
| 2026-04-25 12:34 | 50.25721 | 6.14435 | 22818 ft | 375 kts | 23° |
| 2026-04-25 12:34 | 50.26496 | 6.15101 | 22611 ft | 378 kts | 30° |
| 2026-04-25 12:35 | 50.29414 | 6.20190 | 21663 ft | 387 kts | 59° |
| 2026-04-25 12:35 | 50.30657 | 6.23926 | 21100 ft | 387 kts | 60° |
| 2026-04-25 12:35 | 50.31892 | 6.27665 | 20536 ft | 387 kts | 60° |
| 2026-04-25 12:35 | 50.33123 | 6.31404 | 19992 ft | 386 kts | 60° |
| 2026-04-25 12:36 | 50.34356 | 6.35141 | 19466 ft | 386 kts | 60° |
| 2026-04-25 12:36 | 50.35586 | 6.38866 | 18945 ft | 385 kts | 60° |
| 2026-04-25 12:36 | 50.36816 | 6.42589 | 18403 ft | 385 kts | 60° |
| 2026-04-25 12:36 | 50.38050 | 6.46321 | 17729 ft | 386 kts | 60° |
| 2026-04-25 12:37 | 50.39287 | 6.50054 | 17076 ft | 387 kts | 60° |
| 2026-04-25 12:37 | 50.40528 | 6.53803 | 16439 ft | 388 kts | 60° |
| 2026-04-25 12:37 | 50.41768 | 6.57561 | 15812 ft | 389 kts | 60° |
| 2026-04-25 12:37 | 50.43006 | 6.61329 | 15191 ft | 389 kts | 60° |
| 2026-04-25 12:38 | 50.44240 | 6.65105 | 14584 ft | 387 kts | 60° |
| 2026-04-25 12:38 | 50.45455 | 6.68832 | 13989 ft | 380 kts | 60° |
| 2026-04-25 12:38 | 50.46245 | 6.71262 | 13561 ft | 375 kts | 60° |
| 2026-04-25 12:38 | 50.47422 | 6.74875 | 12907 ft | 368 kts | 60° |
| 2026-04-25 12:39 | 50.48579 | 6.78424 | 12277 ft | 362 kts | 60° |
| 2026-04-25 12:39 | 50.50080 | 6.83033 | 11446 ft | 354 kts | 60° |
| 2026-04-25 12:39 | 50.50833 | 6.85343 | 11121 ft | 349 kts | 60° |
| 2026-04-25 12:39 | 50.52266 | 6.89753 | 10784 ft | 336 kts | 60° |
| 2026-04-25 12:40 | 50.52979 | 6.91945 | 10467 ft | 331 kts | 60° |
| 2026-04-25 12:40 | 50.54015 | 6.95141 | 9983 ft | 325 kts | 60° |
| 2026-04-25 12:40 | 50.55026 | 6.98271 | 9463 ft | 316 kts | 60° |
| 2026-04-25 12:40 | 50.56003 | 7.01308 | 8934 ft | 306 kts | 60° |
| 2026-04-25 12:41 | 50.56948 | 7.04250 | 8435 ft | 297 kts | 60° |
| 2026-04-25 12:41 | 50.57865 | 7.07112 | 8013 ft | 290 kts | 60° |
| 2026-04-25 12:41 | 50.58760 | 7.09916 | 7756 ft | 283 kts | 61° |
| 2026-04-25 12:41 | 50.59640 | 7.12667 | 7375 ft | 283 kts | 60° |
| 2026-04-25 12:42 | 50.60537 | 7.15448 | 6875 ft | 287 kts | 60° |
| 2026-04-25 12:42 | 50.61128 | 7.17290 | 6543 ft | 283 kts | 60° |
| 2026-04-25 12:42 | 50.62292 | 7.20917 | 5857 ft | 272 kts | 61° |
| 2026-04-25 12:42 | 50.63138 | 7.23540 | 5350 ft | 266 kts | 59° |
| 2026-04-25 12:43 | 50.63955 | 7.26117 | 4850 ft | 260 kts | 60° |
| 2026-04-25 12:43 | 50.64751 | 7.28632 | 4428 ft | 250 kts | 60° |
| 2026-04-25 12:43 | 50.66696 | 7.32905 | 3918 ft | 234 kts | 25° |
| 2026-04-25 12:44 | 50.68215 | 7.33586 | 3667 ft | 226 kts | 5° |
| 2026-04-25 12:44 | 50.69771 | 7.33825 | 3453 ft | 222 kts | 2° |
| 2026-04-25 12:44 | 50.72735 | 7.33930 | 3186 ft | 203 kts | 345° |
| 2026-04-25 12:45 | 50.74002 | 7.33077 | 3084 ft | 194 kts | 325° |
| 2026-04-25 12:45 | 50.74989 | 7.31742 | 3045 ft | 181 kts | 318° |
| 2026-04-25 12:45 | 50.76821 | 7.29114 | 2657 ft | 178 kts | 317° |
| 2026-04-25 12:46 | 50.77732 | 7.27805 | 2417 ft | 176 kts | 317° |
| 2026-04-25 12:46 | 50.78632 | 7.26509 | 2190 ft | 174 kts | 317° |
| 2026-04-25 12:46 | 50.79521 | 7.25228 | 1970 ft | 171 kts | 317° |
| 2026-04-25 12:46 | 50.80372 | 7.24001 | 1727 ft | 159 kts | 317° |
| 2026-04-25 12:47 | 50.81151 | 7.22879 | 1549 ft | 143 kts | 316° |
| 2026-04-25 12:47 | 50.81870 | 7.21842 | 1339 ft | 138 kts | 316° |
| 2026-04-25 12:47 | 50.82572 | 7.20829 | 1137 ft | 136 kts | 315° |
| 2026-04-25 12:47 | 50.83276 | 7.19811 | 940 ft | 139 kts | 315° |
| 2026-04-25 12:48 | 50.83989 | 7.18774 | 790 ft | 139 kts | 315° |
| 2026-04-25 12:48 | 50.84680 | 7.17767 | 638 ft | 137 kts | 316° |
| 2026-04-25 12:48 | 50.85403 | 7.16733 | 428 ft | 139 kts | 316° |
| 2026-04-25 12:48 | 50.86090 | 7.15753 | 300 ft | 125 kts | 315° |
| 2026-04-25 12:49 | 50.86645 | 7.14926 | 273 ft | 97 kts | 317° |
| 2026-04-25 12:49 | 50.87099 | 7.14278 | 251 ft | 80 kts | 318° |
| 2026-04-25 12:49 | 50.87479 | 7.13733 | 240 ft | 67 kts | 318° |
| 2026-04-25 12:49 | 50.87793 | 7.13274 | 239 ft | 56 kts | 317° |
| 2026-04-25 12:50 | 50.87962 | 7.13019 | 239 ft | 24 kts | 311° |
| 2026-04-25 12:50 | 50.88004 | 7.12824 | 238 ft | 16 kts | 262° |
| 2026-04-25 12:50 | 50.87946 | 7.12655 | 232 ft | 17 kts | 213° |
| 2026-04-25 12:50 | 50.87872 | 7.12603 | 232 ft | 11 kts | 198° |
| 2026-04-25 12:51 | 50.87805 | 7.12571 | 232 ft | 9 kts | 197° |
| 2026-04-25 12:51 | 50.87781 | 7.12559 | 234 ft | 2 kts | 198° |
| 2026-04-25 12:51 | 50.87756 | 7.12546 | 232 ft | 4 kts | 200° |
| 2026-04-25 12:51 | 50.87744 | 7.12523 | 234 ft | 2 kts | 248° |
| 2026-04-25 12:52 | 50.87748 | 7.12503 | 232 ft | 6 kts | 286° |
| 2026-04-25 12:52 | 50.87765 | 7.12423 | 234 ft | 8 kts | 289° |
| 2026-04-25 12:52 | 50.87769 | 7.12402 | 233 ft | 0 kts | 288° |